Terminal Aerodrome Forecast
Issued by NWS

Home | Current Version | Previous Version | Text Only | Print | Product List | Glossary On
Versions: 1 2 3 4 5 6 7 8 9 10 11 12 13 14 15 16 17
478
FTUS43 KMQT 160536
TAFSAW
TAF
KSAW 160536Z 1606/1706 29003KT P6SM BKN150
     FM160800 32005KT P6SM VCSH BKN150
     FM161100 36004KT 5SM -SHSN BKN025
     FM161500 10004KT P6SM -SHSN BKN035
     FM161700 12004KT P6SM BKN050
     FM170500 16004KT P6SM BKN035=

USA.gov is the U.S. government's official web portal to all federal, state and local government web resources and services.